createdAt,value
2018-05-16T00:00:37.983Z,6.47
2018-05-16T00:04:01.312Z,7.17
2018-05-16T00:07:26.147Z,6.83
2018-05-16T00:10:49.459Z,6.80
2018-05-16T00:14:12.805Z,9.33
2018-05-16T00:17:36.096Z,11.93
2018-05-16T00:20:59.495Z,11.17
2018-05-16T00:24:23.603Z,13.57
2018-05-16T00:27:46.896Z,14.70
2018-05-16T00:31:10.193Z,15.70
2018-05-16T00:34:33.509Z,13.83
2018-05-16T00:37:56.886Z,14.63
2018-05-16T00:41:20.202Z,14.53
2018-05-16T00:44:45.060Z,14.43
2018-05-16T00:48:08.405Z,14.27
2018-05-16T00:51:32.509Z,12.33
2018-05-16T00:54:55.855Z,12.53
2018-05-16T00:58:19.135Z,12.50
2018-05-16T01:01:42.563Z,12.30
2018-05-16T01:05:05.993Z,12.17
2018-05-16T01:08:29.271Z,10.67
2018-05-16T01:11:52.557Z,9.83
2018-05-16T01:15:15.877Z,10.30
2018-05-16T01:18:40.063Z,8.90
2018-05-16T01:22:03.365Z,10.77
2018-05-16T01:25:26.792Z,9.97
2018-05-16T01:28:50.126Z,9.80
2018-05-16T01:32:14.237Z,9.60
2018-05-16T01:35:37.515Z,10.37
2018-05-16T01:39:00.813Z,9.20
2018-05-16T01:42:24.141Z,8.97
2018-05-16T01:45:47.441Z,10.83
2018-05-16T01:49:19.793Z,9.87
2018-05-16T01:52:43.881Z,10.70
2018-05-16T01:56:07.201Z,9.70
2018-05-16T01:59:30.531Z,10.27
2018-05-16T02:02:54.625Z,9.70
2018-05-16T02:06:17.916Z,10.53
2018-05-16T02:09:41.261Z,9.33
2018-05-16T02:13:04.623Z,8.40
2018-05-16T02:16:27.899Z,8.77
2018-05-16T02:19:51.965Z,8.10
2018-05-16T02:23:15.286Z,9.00
2018-05-16T02:26:38.670Z,8.87
2018-05-16T02:30:02.791Z,8.13
2018-05-16T02:33:26.071Z,8.20
2018-05-16T02:36:49.356Z,8.37
2018-05-16T02:40:12.628Z,6.27
2018-05-16T02:43:35.923Z,6.50
2018-05-16T02:46:59.204Z,5.93
2018-05-16T02:50:22.500Z,6.80
2018-05-16T02:53:45.795Z,6.70
2018-05-16T02:57:09.123Z,5.77
2018-05-16T03:00:32.425Z,5.27
2018-05-16T03:03:55.980Z,5.73
2018-05-16T03:07:19.324Z,6.50
2018-05-16T03:10:43.586Z,6.20
2018-05-16T03:14:06.991Z,6.97
2018-05-16T03:17:30.297Z,6.47
2018-05-16T03:20:58.613Z,6.20
2018-05-16T03:24:21.991Z,6.23
2018-05-16T03:27:46.076Z,6.73
2018-05-16T03:31:10.188Z,5.97
2018-05-16T03:34:33.639Z,6.63
2018-05-16T03:37:56.974Z,6.50
2018-05-16T03:41:20.258Z,6.50
2018-05-16T03:44:43.553Z,6.77
2018-05-16T03:48:06.933Z,6.57
2018-05-16T03:51:30.277Z,6.30
2018-05-16T03:54:53.607Z,6.53
2018-05-16T03:58:34.565Z,6.57
2018-05-16T04:02:15.765Z,6.67
2018-05-16T04:05:39.964Z,6.00
2018-05-16T04:09:03.261Z,5.90
2018-05-16T04:12:26.635Z,5.83
2018-05-16T04:15:57.327Z,6.07
2018-05-16T04:19:23.813Z,5.87
2018-05-16T04:22:47.304Z,6.47
2018-05-16T04:26:10.568Z,6.77
2018-05-16T04:29:33.955Z,6.73
2018-05-16T04:32:57.318Z,6.97
2018-05-16T04:36:24.946Z,6.40
2018-05-16T04:39:48.442Z,6.77
2018-05-16T04:43:11.723Z,6.43
2018-05-16T04:46:35.011Z,6.77
2018-05-16T04:49:58.397Z,6.77
2018-05-16T04:53:23.309Z,6.77
2018-05-16T04:56:46.611Z,6.67
2018-05-16T05:00:09.881Z,6.97
2018-05-16T05:03:33.187Z,7.23
2018-05-16T05:06:56.601Z,7.40
2018-05-16T05:10:20.696Z,7.87
2018-05-16T05:13:44.050Z,7.47
2018-05-16T05:17:07.321Z,7.53
2018-05-16T05:20:30.607Z,6.97
2018-05-16T05:23:54.714Z,7.60
2018-05-16T05:27:18.049Z,6.97
2018-05-16T05:30:42.157Z,7.63
2018-05-16T05:34:05.487Z,6.90
2018-05-16T05:37:29.605Z,6.60
2018-05-16T05:40:52.951Z,6.23
2018-05-16T05:44:16.306Z,6.90
2018-05-16T05:47:39.659Z,6.30
2018-05-16T05:51:03.004Z,5.67
2018-05-16T05:54:26.344Z,6.30
2018-05-16T05:57:50.524Z,6.80
2018-05-16T06:01:13.849Z,6.07
2018-05-16T06:04:37.954Z,6.60
2018-05-16T06:08:01.249Z,5.77
2018-05-16T06:11:24.522Z,5.80
2018-05-16T06:14:48.701Z,6.00
2018-05-16T06:18:12.085Z,5.47
2018-05-16T06:21:36.207Z,6.13
2018-05-16T06:24:59.490Z,5.63
2018-05-16T06:28:22.859Z,5.70
2018-05-16T06:31:46.203Z,6.33
2018-05-16T06:35:09.557Z,6.33
2018-05-16T06:38:34.125Z,5.80
2018-05-16T06:41:58.236Z,8.10
2018-05-16T06:45:22.333Z,7.10
2018-05-16T06:48:45.750Z,5.57
2018-05-16T06:52:10.080Z,5.20
2018-05-16T06:55:33.427Z,4.43
2018-05-16T06:58:56.768Z,4.87
2018-05-16T07:02:20.139Z,5.57
2018-05-16T07:05:43.481Z,4.77
2018-05-16T07:09:06.833Z,5.03
2018-05-16T07:12:30.113Z,5.00
2018-05-16T07:15:54.240Z,5.07
2018-05-16T07:19:18.330Z,5.07
2018-05-16T07:22:42.457Z,5.33
2018-05-16T07:26:05.795Z,6.57
2018-05-16T07:29:29.183Z,6.07
2018-05-16T07:32:52.510Z,6.93
2018-05-16T07:36:15.795Z,7.63
2018-05-16T07:39:39.098Z,6.70
2018-05-16T07:43:02.437Z,7.10
2018-05-16T07:46:26.553Z,7.00
2018-05-16T07:49:49.882Z,7.80
2018-05-16T07:53:13.190Z,6.87
2018-05-16T07:56:36.543Z,7.03
2018-05-16T07:59:59.857Z,7.67
2018-05-16T08:03:23.188Z,7.50
2018-05-16T08:06:46.531Z,7.67
2018-05-16T08:10:10.839Z,7.63
2018-05-16T08:13:34.189Z,8.17
2018-05-16T08:16:57.527Z,8.87
2018-05-16T08:20:21.637Z,9.57
2018-05-16T08:23:45.057Z,9.60
2018-05-16T08:27:08.390Z,10.57
2018-05-16T08:30:31.699Z,13.80
2018-05-16T08:33:55.146Z,15.43
2018-05-16T08:37:18.487Z,16.23
2018-05-16T08:40:41.846Z,17.63
2018-05-16T08:44:05.132Z,17.90
2018-05-16T08:47:28.485Z,16.53
2018-05-16T08:50:51.783Z,15.03
2018-05-16T08:54:15.107Z,15.60
2018-05-16T08:57:38.485Z,16.50
2018-05-16T09:01:01.777Z,13.90
2018-05-16T09:04:25.119Z,15.63
2018-05-16T09:07:48.537Z,16.83
2018-05-16T09:11:11.877Z,14.13
2018-05-16T09:14:36.007Z,14.47
2018-05-16T09:17:59.389Z,12.73
2018-05-16T09:21:23.506Z,11.83
2018-05-16T09:24:47.106Z,13.07
2018-05-16T09:28:10.435Z,10.33
2018-05-16T09:31:33.827Z,9.03
2018-05-16T09:34:57.962Z,9.87
2018-05-16T09:38:21.332Z,8.03
2018-05-16T09:41:45.791Z,8.87
2018-05-16T09:45:09.830Z,9.17
2018-05-16T09:48:33.125Z,8.40
2018-05-16T09:51:56.493Z,7.30
2018-05-16T09:55:19.879Z,7.30
2018-05-16T09:58:43.974Z,5.97
2018-05-16T10:02:07.363Z,6.30
2018-05-16T10:05:30.715Z,5.73
2018-05-16T10:08:54.062Z,5.90
2018-05-16T10:12:17.344Z,4.93
2018-05-16T10:15:41.434Z,4.87
2018-05-16T10:19:04.730Z,5.63
2018-05-16T10:22:28.014Z,5.50
2018-05-16T10:25:51.310Z,5.27
2018-05-16T10:29:14.580Z,6.03
2018-05-16T10:32:37.866Z,6.50
2018-05-16T10:36:01.188Z,6.63
2018-05-16T10:39:25.235Z,5.57
2018-05-16T10:42:49.781Z,5.47
2018-05-16T10:46:13.850Z,6.53
2018-05-16T10:49:37.142Z,7.90
2018-05-16T10:53:04.180Z,7.60
2018-05-16T10:56:27.473Z,7.63
2018-05-16T10:59:52.888Z,7.47
2018-05-16T11:03:17.328Z,8.10
2018-05-16T11:06:41.353Z,7.80
2018-05-16T11:10:05.396Z,8.43
2018-05-16T11:13:36.606Z,8.80
2018-05-16T11:17:00.042Z,7.93
2018-05-16T11:20:23.408Z,7.27
2018-05-16T11:23:46.748Z,7.97
2018-05-16T11:27:10.106Z,8.57
2018-05-16T11:30:37.622Z,9.27
2018-05-16T11:34:00.976Z,8.73
2018-05-16T11:37:24.498Z,8.53
2018-05-16T11:40:48.570Z,8.67
2018-05-16T11:44:11.900Z,8.43
2018-05-16T11:47:35.192Z,9.10
2018-05-16T11:50:58.546Z,8.63
2018-05-16T11:54:21.833Z,8.97
2018-05-16T11:57:45.245Z,8.63
2018-05-16T12:01:08.533Z,7.57
2018-05-16T12:04:32.642Z,8.03
2018-05-16T12:07:56.005Z,7.33
2018-05-16T12:11:19.392Z,7.57
2018-05-16T12:14:43.794Z,6.73
2018-05-16T12:18:07.870Z,6.93
2018-05-16T12:21:31.174Z,7.60
2018-05-16T12:24:54.438Z,6.83
2018-05-16T12:28:17.740Z,7.07
2018-05-16T12:31:41.116Z,7.60
2018-05-16T12:35:05.192Z,6.60
2018-05-16T12:38:29.450Z,6.03
2018-05-16T12:41:52.802Z,5.33
2018-05-16T12:45:18.170Z,5.67
2018-05-16T12:48:41.447Z,6.00
2018-05-16T12:52:04.863Z,5.93
2018-05-16T12:55:28.220Z,6.10
2018-05-16T12:58:51.576Z,5.90
2018-05-16T13:02:14.848Z,5.83
2018-05-16T13:05:38.151Z,6.17
2018-05-16T13:09:01.662Z,6.27
2018-05-16T13:12:25.051Z,6.07
2018-05-16T13:15:49.183Z,6.57
2018-05-16T13:19:12.571Z,5.80
2018-05-16T13:22:36.697Z,6.37
2018-05-16T13:26:00.033Z,6.53
2018-05-16T13:29:24.220Z,6.00
2018-05-16T13:32:48.529Z,5.80
2018-05-16T13:36:12.620Z,5.90
2018-05-16T13:39:35.949Z,6.40
2018-05-16T13:42:59.290Z,6.93
2018-05-16T13:46:22.590Z,6.43
2018-05-16T13:49:45.871Z,6.90
2018-05-16T13:53:09.245Z,6.70
2018-05-16T13:56:33.376Z,6.87
2018-05-16T13:59:56.683Z,6.97
2018-05-16T14:03:20.729Z,6.67
2018-05-16T14:06:43.995Z,7.10
2018-05-16T14:10:08.105Z,6.67
2018-05-16T14:13:31.420Z,8.27
2018-05-16T14:16:54.707Z,7.20
2018-05-16T14:20:19.561Z,6.40
2018-05-16T14:23:42.836Z,6.03
2018-05-16T14:27:06.195Z,6.03
2018-05-16T14:30:29.469Z,6.70
2018-05-16T14:33:52.815Z,7.17
2018-05-16T14:37:16.980Z,7.47
2018-05-16T14:40:41.101Z,7.17
2018-05-16T14:44:03.704Z,7.00
2018-05-16T14:47:27.935Z,7.40
2018-05-16T14:50:51.223Z,6.97
2018-05-16T14:54:14.521Z,6.47
2018-05-16T14:57:37.872Z,6.03
2018-05-16T15:01:01.254Z,5.93
2018-05-16T15:04:24.616Z,5.03
2018-05-16T15:07:48.697Z,5.87
2018-05-16T15:11:12.022Z,5.27
2018-05-16T15:14:35.324Z,5.80
2018-05-16T15:17:58.684Z,6.50
2018-05-16T15:21:22.061Z,5.87
2018-05-16T15:24:46.888Z,6.13
2018-05-16T15:28:10.224Z,6.87
2018-05-16T15:31:34.297Z,6.27
2018-05-16T15:34:57.631Z,7.73
2018-05-16T15:38:20.917Z,5.83
2018-05-16T15:41:44.305Z,6.33
2018-05-16T15:45:08.362Z,6.23
2018-05-16T15:48:31.683Z,5.97
2018-05-16T15:51:56.419Z,6.20
2018-05-16T15:55:20.815Z,5.60
2018-05-16T15:58:45.507Z,5.50
2018-05-16T16:02:08.967Z,5.77
2018-05-16T16:05:33.899Z,5.67
2018-05-16T16:08:57.356Z,5.30
2018-05-16T16:12:21.788Z,5.63
2018-05-16T16:16:01.304Z,5.40
2018-05-16T16:19:25.689Z,5.57
2018-05-16T16:22:48.994Z,5.30
2018-05-16T16:26:12.669Z,5.10
2018-05-16T16:29:36.795Z,5.40
2018-05-16T16:33:00.080Z,6.00
2018-05-16T16:36:23.584Z,4.90
2018-05-16T16:39:46.959Z,5.47
2018-05-16T16:43:10.279Z,5.30
2018-05-16T16:46:34.592Z,5.40
2018-05-16T16:49:57.879Z,5.80
2018-05-16T16:53:21.865Z,5.63
2018-05-16T16:56:46.818Z,5.80
2018-05-16T17:00:12.122Z,6.77
2018-05-16T17:03:36.575Z,5.80
2018-05-16T17:07:00.804Z,6.47
2018-05-16T17:10:24.914Z,6.30
2018-05-16T17:13:49.072Z,6.33
2018-05-16T17:17:12.511Z,6.07
2018-05-16T17:20:35.930Z,7.07
2018-05-16T17:24:00.036Z,6.67
2018-05-16T17:27:24.359Z,7.30
2018-05-16T17:30:48.991Z,6.70
2018-05-16T17:34:13.482Z,7.40
2018-05-16T17:37:37.542Z,7.27
2018-05-16T17:41:01.514Z,6.67
2018-05-16T17:44:25.657Z,8.10
2018-05-16T17:47:49.766Z,9.67
2018-05-16T17:51:13.118Z,8.90
2018-05-16T17:54:36.651Z,10.33
2018-05-16T17:58:00.045Z,9.97
2018-05-16T18:01:24.094Z,10.30
2018-05-16T18:04:47.443Z,9.80
2018-05-16T18:08:10.902Z,8.60
2018-05-16T18:11:34.945Z,9.20
2018-05-16T18:15:22.955Z,9.53
2018-05-16T18:18:46.287Z,8.27
2018-05-16T18:22:09.610Z,8.30
2018-05-16T18:25:32.980Z,8.40
2018-05-16T18:28:56.315Z,8.80
2018-05-16T18:32:46.762Z,8.57
2018-05-16T18:36:10.316Z,8.87
2018-05-16T18:39:35.177Z,8.93
2018-05-16T18:42:58.535Z,8.93
2018-05-16T18:46:21.871Z,8.77
2018-05-16T18:49:45.163Z,8.83
2018-05-16T18:53:08.462Z,10.10
2018-05-16T18:56:31.814Z,8.27
2018-05-16T18:59:55.238Z,9.50
2018-05-16T19:03:18.522Z,8.80
2018-05-16T19:06:41.800Z,9.57
2018-05-16T19:10:05.152Z,8.63
2018-05-16T19:13:29.279Z,8.70
2018-05-16T19:16:53.334Z,9.73
2018-05-16T19:20:16.690Z,9.73
2018-05-16T19:23:40.049Z,9.27
2018-05-16T19:27:03.422Z,12.23
2018-05-16T19:30:26.795Z,12.43
2018-05-16T19:33:50.853Z,10.50
2018-05-16T19:37:14.234Z,12.63
2018-05-16T19:40:38.515Z,12.93
2018-05-16T19:44:01.786Z,12.13
2018-05-16T19:47:25.083Z,11.30
2018-05-16T19:50:48.514Z,12.90
2018-05-16T19:54:11.855Z,11.47
2018-05-16T19:57:35.214Z,10.20
2018-05-16T20:00:58.504Z,9.97
2018-05-16T20:04:21.850Z,10.23
2018-05-16T20:07:45.154Z,12.43
2018-05-16T20:11:08.616Z,12.20
2018-05-16T20:14:32.054Z,12.23
2018-05-16T20:17:56.133Z,13.90
2018-05-16T20:21:20.644Z,12.63
2018-05-16T20:24:44.811Z,13.50
2018-05-16T20:28:08.937Z,10.70
2018-05-16T20:31:34.040Z,9.87
2018-05-16T20:34:57.339Z,9.70
2018-05-16T20:38:20.700Z,9.10
2018-05-16T20:41:44.118Z,9.10
2018-05-16T20:45:07.498Z,10.30
2018-05-16T20:48:31.659Z,9.70
2018-05-16T20:51:55.790Z,10.37
2018-05-16T20:55:19.127Z,11.00
2018-05-16T20:58:42.407Z,10.43
2018-05-16T21:02:07.219Z,10.53
2018-05-16T21:05:30.496Z,10.00
2018-05-16T21:08:53.807Z,11.23
2018-05-16T21:12:17.166Z,11.30
2018-05-16T21:15:40.504Z,11.47
2018-05-16T21:19:03.805Z,11.67
2018-05-16T21:22:27.214Z,10.23
2018-05-16T21:25:50.533Z,10.23
2018-05-16T21:29:14.596Z,10.57
2018-05-16T21:32:37.889Z,10.93
2018-05-16T21:36:01.234Z,10.90
2018-05-16T21:39:24.515Z,10.03
2018-05-16T21:42:47.786Z,11.37
2018-05-16T21:46:11.173Z,10.47
2018-05-16T21:49:34.581Z,11.47
2018-05-16T21:52:57.875Z,11.53
2018-05-16T21:56:21.168Z,11.17
2018-05-16T21:59:44.513Z,11.23
2018-05-16T22:03:07.864Z,11.03
2018-05-16T22:06:31.166Z,11.03
2018-05-16T22:09:54.501Z,13.17
2018-05-16T22:13:17.824Z,12.00
2018-05-16T22:16:42.688Z,12.23
2018-05-16T22:20:05.989Z,16.37
2018-05-16T22:23:29.321Z,13.83
2018-05-16T22:26:52.607Z,12.87
2018-05-16T22:30:15.223Z,11.10
2018-05-16T22:33:45.536Z,11.27
2018-05-16T22:37:16.180Z,12.27
2018-05-16T22:40:45.854Z,13.53
2018-05-16T22:44:15.416Z,12.10
2018-05-16T22:47:38.689Z,12.30
2018-05-16T22:51:02.792Z,12.73
2018-05-16T22:54:26.142Z,11.77
2018-05-16T22:57:49.500Z,13.17
2018-05-16T23:01:12.798Z,12.03
2018-05-16T23:04:36.152Z,11.23
2018-05-16T23:07:59.516Z,11.97
2018-05-16T23:11:22.802Z,12.23
2018-05-16T23:14:46.139Z,13.10
2018-05-16T23:18:09.443Z,12.87
2018-05-16T23:21:32.720Z,12.40
2018-05-16T23:24:56.069Z,12.53
2018-05-16T23:28:19.494Z,13.20
2018-05-16T23:31:42.779Z,13.17
2018-05-16T23:35:06.146Z,12.87
2018-05-16T23:38:29.511Z,13.20
2018-05-16T23:41:52.858Z,14.13
2018-05-16T23:45:16.141Z,13.47
2018-05-16T23:48:39.430Z,14.80
2018-05-16T23:52:02.805Z,14.47
2018-05-16T23:55:26.170Z,15.53
2018-05-16T23:58:50.291Z,15.13
